createdAt,value
2023-04-29T04:58:27.228Z,17.90
2023-04-29T05:00:55.632Z,17.07
2023-04-29T05:03:23.632Z,17.63
2023-04-29T05:05:58.759Z,17.70
2023-04-29T05:08:27.074Z,17.13
2023-04-29T05:10:58.332Z,17.43
2023-04-29T05:13:26.945Z,16.97
2023-04-29T05:15:55.344Z,17.23
2023-04-29T05:18:27.142Z,17.00
2023-04-29T05:20:55.037Z,17.43
2023-04-29T05:23:23.299Z,16.63
2023-04-29T05:25:51.895Z,16.40
2023-04-29T05:28:19.513Z,17.50
2023-04-29T05:30:48.440Z,17.17
2023-04-29T05:33:16.101Z,16.90
2023-04-29T05:35:44.949Z,15.87
2023-04-29T05:38:12.638Z,15.13
2023-04-29T05:40:42.591Z,15.57
2023-04-29T05:43:30.632Z,14.80
2023-04-29T05:45:59.976Z,15.00
2023-04-29T05:48:28.645Z,15.57
2023-04-29T05:50:57.085Z,14.87
2023-04-29T05:53:25.621Z,14.23
2023-04-29T05:55:54.396Z,14.20
2023-04-29T05:58:22.792Z,14.87
2023-04-29T06:00:51.201Z,14.67
2023-04-29T06:03:25.964Z,15.57
2023-04-29T06:06:06.926Z,15.10
2023-04-29T06:08:41.974Z,15.40
2023-04-29T06:11:23.613Z,13.50
2023-04-29T06:13:51.516Z,13.70
2023-04-29T06:16:19.776Z,12.80
2023-04-29T06:18:48.095Z,12.00
2023-04-29T06:21:16.405Z,11.27
2023-04-29T06:23:44.004Z,11.73
2023-04-29T06:26:17.195Z,11.40
2023-04-29T06:28:45.509Z,11.07
2023-04-29T06:31:13.830Z,11.57
2023-04-29T06:33:42.860Z,10.90
2023-04-29T06:36:10.912Z,11.20
2023-04-29T06:39:10.728Z,9.90
2023-04-29T06:42:04.463Z,10.20
2023-04-29T06:44:47.617Z,10.73
2023-04-29T06:47:33.816Z,10.63
2023-04-29T06:50:15.236Z,9.98
2023-04-29T06:52:44.638Z,9.43
2023-04-29T06:55:12.640Z,9.98
2023-04-29T06:57:43.831Z,9.45
2023-04-29T07:00:11.760Z,9.57
2023-04-29T07:02:39.884Z,10.60
2023-04-29T07:05:07.928Z,10.60
2023-04-29T07:07:36.696Z,10.90
2023-04-29T07:10:04.263Z,9.73
2023-04-29T07:12:32.327Z,9.15
2023-04-29T07:15:00.095Z,10.55
2023-04-29T07:17:30.321Z,10.10
2023-04-29T07:19:58.004Z,10.57
2023-04-29T07:22:26.254Z,10.63
2023-04-29T07:24:57.292Z,11.38
2023-04-29T07:27:25.941Z,10.50
2023-04-29T07:29:53.523Z,10.30
2023-04-29T07:32:21.376Z,10.55
2023-04-29T07:34:49.452Z,10.75
2023-04-29T07:37:17.237Z,11.48
2023-04-29T07:39:44.885Z,11.32
2023-04-29T07:42:13.480Z,10.52
2023-04-29T07:44:42.146Z,11.15
2023-04-29T07:47:09.844Z,11.32
2023-04-29T07:49:37.596Z,10.57
2023-04-29T07:52:06.404Z,10.02
2023-04-29T07:54:34.168Z,9.40
2023-04-29T07:57:03.761Z,10.35
2023-04-29T07:59:32.160Z,11.30
2023-04-29T08:01:59.901Z,10.98
2023-04-29T08:04:28.074Z,11.05
2023-04-29T08:07:07.102Z,11.35
2023-04-29T08:09:36.953Z,9.70
2023-04-29T08:12:05.714Z,11.73
2023-04-29T08:14:32.979Z,11.82
2023-04-29T08:17:01.007Z,11.05
2023-04-29T08:19:28.525Z,11.60
2023-04-29T08:21:56.300Z,11.65
2023-04-29T08:24:23.949Z,11.77
2023-04-29T08:26:52.560Z,11.75
2023-04-29T08:29:20.758Z,12.77
2023-04-29T08:31:48.817Z,11.77
2023-04-29T08:34:16.494Z,12.37
2023-04-29T08:36:44.634Z,12.47
2023-04-29T08:39:13.010Z,13.23
2023-04-29T08:41:40.859Z,13.77
2023-04-29T08:44:08.106Z,12.63
2023-04-29T08:46:36.474Z,13.27
2023-04-29T08:49:04.542Z,14.03
2023-04-29T08:51:33.338Z,14.13
2023-04-29T08:54:01.026Z,14.97
2023-04-29T08:56:31.087Z,14.13
2023-04-29T08:58:59.271Z,15.77
2023-04-29T09:01:29.027Z,14.47
2023-04-29T09:04:17.943Z,14.50
2023-04-29T09:06:46.925Z,14.73
2023-04-29T09:09:15.456Z,15.17
2023-04-29T09:11:42.872Z,15.60
2023-04-29T09:14:10.043Z,13.82
2023-04-29T09:16:39.059Z,14.82
2023-04-29T09:19:06.322Z,14.73
2023-04-29T09:21:34.094Z,14.27
2023-04-29T09:24:03.012Z,14.60
2023-04-29T09:26:42.547Z,15.35
2023-04-29T09:29:14.511Z,15.13
2023-04-29T09:31:44.144Z,14.85
2023-04-29T09:34:12.599Z,15.90
2023-04-29T09:36:46.857Z,14.25
2023-04-29T09:39:21.225Z,16.48
2023-04-29T09:41:54.631Z,16.73
2023-04-29T09:44:23.857Z,17.60
2023-04-29T09:47:11.548Z,16.20
2023-04-29T09:49:42.164Z,17.02
2023-04-29T09:52:11.848Z,16.70
2023-04-29T09:54:41.231Z,16.47
2023-04-29T09:57:10.491Z,17.13
2023-04-29T09:59:40.484Z,17.00
2023-04-29T10:02:16.271Z,16.93
2023-04-29T10:04:47.178Z,16.80
2023-04-29T10:07:17.273Z,16.63
2023-04-29T10:09:47.653Z,14.20
2023-04-29T10:12:21.297Z,16.30
2023-04-29T10:14:55.617Z,15.15
2023-04-29T10:17:46.128Z,15.43
2023-04-29T10:20:22.979Z,15.18
2023-04-29T10:22:52.694Z,16.10
2023-04-29T10:25:21.525Z,15.60
2023-04-29T10:27:52.067Z,16.65
2023-04-29T10:30:20.753Z,15.80
2023-04-29T10:32:52.076Z,14.82
2023-04-29T10:35:23.762Z,13.48
2023-04-29T10:37:53.569Z,13.18
2023-04-29T10:40:40.307Z,12.45
2023-04-29T10:43:08.781Z,12.45
2023-04-29T10:45:36.614Z,13.43
2023-04-29T10:48:08.852Z,13.15
2023-04-29T10:50:48.918Z,14.18
2023-04-29T10:53:22.549Z,12.35
2023-04-29T10:55:58.915Z,12.93
2023-04-29T10:58:46.650Z,12.77
2023-04-29T11:01:16.796Z,10.80
2023-04-29T11:03:48.758Z,12.48
2023-04-29T11:06:25.630Z,11.88
2023-04-29T11:09:03.862Z,11.73
2023-04-29T11:11:44.711Z,12.23
2023-04-29T11:14:14.454Z,12.23
2023-04-29T11:16:51.706Z,11.00
2023-04-29T11:19:19.856Z,11.98
2023-04-29T11:21:48.996Z,10.30
2023-04-29T11:24:17.862Z,11.68
2023-04-29T11:26:48.393Z,10.85
2023-04-29T11:29:21.840Z,10.18
2023-04-29T11:32:02.019Z,10.23
2023-04-29T11:34:32.036Z,9.98
2023-04-29T11:37:00.567Z,10.07
2023-04-29T11:39:29.398Z,11.00
2023-04-29T11:42:07.678Z,10.75
2023-04-29T11:44:38.983Z,11.02
2023-04-29T11:47:12.243Z,10.20
2023-04-29T11:49:40.083Z,10.68
2023-04-29T11:52:08.372Z,10.13
2023-04-29T11:54:36.630Z,10.43
2023-04-29T11:57:05.476Z,11.25
2023-04-29T11:59:34.458Z,11.65
2023-04-29T12:02:02.145Z,11.32
2023-04-29T12:04:32.812Z,10.40
2023-04-29T12:07:03.279Z,11.82
2023-04-29T12:09:43.398Z,11.73
2023-04-29T12:12:12.284Z,13.00
2023-04-29T12:14:42.446Z,12.43
2023-04-29T12:17:11.081Z,12.05
2023-04-29T12:19:40.514Z,12.45
2023-04-29T12:22:09.309Z,11.95
2023-04-29T12:24:41.332Z,11.25
2023-04-29T12:27:11.849Z,13.90
2023-04-29T12:29:43.550Z,11.82
2023-04-29T12:32:18.084Z,11.48
2023-04-29T12:34:47.874Z,11.70
2023-04-29T12:37:16.215Z,18.92
2023-04-29T12:39:46.514Z,13.75
2023-04-29T12:42:17.907Z,11.68
2023-04-29T12:44:49.706Z,11.82
2023-04-29T12:47:17.737Z,9.77
2023-04-29T12:49:47.305Z,10.10
2023-04-29T12:52:14.867Z,9.82
2023-04-29T12:54:44.145Z,9.77
2023-04-29T12:57:12.607Z,9.15
2023-04-29T12:59:43.601Z,9.07
2023-04-29T13:02:11.143Z,8.25
2023-04-29T13:04:40.116Z,7.90
2023-04-29T13:07:07.900Z,8.07
2023-04-29T13:09:38.276Z,8.32
2023-04-29T13:12:09.696Z,8.07
2023-04-29T13:14:37.592Z,7.72
2023-04-29T13:17:05.192Z,8.07
2023-04-29T13:19:48.178Z,8.55
2023-04-29T13:22:19.101Z,6.68
2023-04-29T13:24:47.124Z,6.70
2023-04-29T13:27:14.728Z,6.15
2023-04-29T13:29:42.820Z,5.80
2023-04-29T13:32:10.340Z,6.57
2023-04-29T13:34:38.243Z,6.28
2023-04-29T13:37:05.871Z,7.03
2023-04-29T13:39:37.891Z,7.95
2023-04-29T13:42:06.418Z,8.13
2023-04-29T13:45:00.306Z,7.82
2023-04-29T13:47:26.036Z,8.95
2023-04-29T13:50:32.854Z,8.45
2023-04-29T14:00:31.537Z,6.25
2023-04-29T14:03:02.356Z,7.35
2023-04-29T14:05:30.178Z,7.03
2023-04-29T14:07:57.648Z,6.95
2023-04-29T14:10:25.188Z,7.10
2023-04-29T14:12:52.367Z,7.35
2023-04-29T14:15:19.779Z,7.15
2023-04-29T14:17:47.119Z,7.05
2023-04-29T14:20:15.050Z,5.68
2023-04-29T14:22:42.259Z,7.47
2023-04-29T14:25:10.174Z,7.20
2023-04-29T14:27:37.630Z,7.97
2023-04-29T14:30:06.154Z,8.32
2023-04-29T14:32:34.282Z,8.02
2023-04-29T14:35:01.879Z,6.90
2023-04-29T14:37:29.246Z,6.22
2023-04-29T14:39:56.821Z,7.97
2023-04-29T14:42:24.741Z,9.60
2023-04-29T14:44:52.865Z,8.77
2023-04-29T14:47:20.519Z,6.95
2023-04-29T14:49:48.075Z,7.25
2023-04-29T14:52:15.435Z,6.97
2023-04-29T14:54:43.070Z,7.88
2023-04-29T14:57:10.907Z,8.05
2023-04-29T14:59:38.676Z,8.00
2023-04-29T15:02:06.168Z,6.82
2023-04-29T15:04:34.264Z,6.80
2023-04-29T15:07:02.370Z,8.18
2023-04-29T15:09:29.874Z,8.38
2023-04-29T15:11:57.254Z,8.50
2023-04-29T15:14:24.674Z,7.18
2023-04-29T15:16:51.931Z,8.40
2023-04-29T15:19:20.362Z,7.78
2023-04-29T15:21:47.496Z,8.13
2023-04-29T15:24:15.122Z,8.48
2023-04-29T15:26:42.717Z,8.80
2023-04-29T15:29:11.719Z,8.30
2023-04-29T15:31:39.413Z,7.85
2023-04-29T15:34:06.896Z,8.43
2023-04-29T15:36:34.783Z,7.82
2023-04-29T15:39:02.392Z,8.20
2023-04-29T15:41:29.784Z,8.60
2023-04-29T15:43:57.780Z,8.85
2023-04-29T15:46:25.102Z,8.52
2023-04-29T15:48:52.742Z,8.10
2023-04-29T15:51:20.169Z,7.63
2023-04-29T15:53:48.130Z,8.63
2023-04-29T15:56:15.450Z,9.10
2023-04-29T15:58:43.206Z,11.63
2023-04-29T16:01:10.439Z,11.80
2023-04-29T16:03:38.058Z,10.88
2023-04-29T16:06:05.508Z,11.27
2023-04-29T16:08:33.175Z,10.68
2023-04-29T16:11:00.432Z,10.80
2023-04-29T16:13:27.832Z,11.20
2023-04-29T16:15:55.487Z,11.20
2023-04-29T16:18:23.217Z,11.40
2023-04-29T16:20:52.243Z,10.25
2023-04-29T16:23:19.733Z,10.30
2023-04-29T16:25:47.089Z,10.02
2023-04-29T16:28:14.666Z,10.70
2023-04-29T16:30:41.850Z,11.55
2023-04-29T16:33:09.454Z,11.68
2023-04-29T16:35:37.284Z,11.32
2023-04-29T16:38:04.881Z,10.32
2023-04-29T16:40:32.157Z,11.07
2023-04-29T16:42:59.725Z,10.88
2023-04-29T16:45:27.285Z,10.98
2023-04-29T16:47:55.028Z,10.18
2023-04-29T16:50:22.360Z,9.60
2023-04-29T16:52:49.843Z,9.30
2023-04-29T16:55:17.303Z,9.10
2023-04-29T16:57:44.762Z,10.20
2023-04-29T17:00:12.396Z,9.27
2023-04-29T17:02:40.646Z,8.32
2023-04-29T17:05:09.168Z,9.40
2023-04-29T17:07:36.982Z,9.38
2023-04-29T17:10:05.275Z,8.45
2023-04-29T17:12:33.450Z,8.05
2023-04-29T17:15:01.266Z,8.73
2023-04-29T17:17:29.163Z,11.05
2023-04-29T17:19:56.749Z,11.25
2023-04-29T17:22:24.525Z,9.00
2023-04-29T17:24:52.276Z,11.15
2023-04-29T17:27:19.866Z,10.20
2023-04-29T17:29:47.122Z,9.93
2023-04-29T17:32:17.446Z,10.73
2023-04-29T17:34:44.803Z,10.40
2023-04-29T17:37:12.451Z,11.25
2023-04-29T17:39:39.772Z,29.27
2023-04-29T17:42:07.622Z,22.00
2023-04-29T17:44:36.949Z,25.77
2023-04-29T17:47:04.391Z,23.27
2023-04-29T17:49:31.663Z,35.95
2023-04-29T17:52:00.503Z,40.17
2023-04-29T17:54:29.326Z,31.02
2023-04-29T17:56:57.211Z,27.58
2023-04-29T17:59:25.077Z,26.45
2023-04-29T18:01:52.973Z,31.42
2023-04-29T18:04:20.232Z,30.00
2023-04-29T18:06:48.026Z,28.73
2023-04-29T18:09:15.246Z,22.63
2023-04-29T18:11:42.769Z,22.83
2023-04-29T18:14:10.293Z,24.48
2023-04-29T18:16:38.213Z,29.17
2023-04-29T18:19:05.567Z,35.33
2023-04-29T18:21:33.031Z,36.33
2023-04-29T18:24:00.346Z,39.53
2023-04-29T18:26:28.715Z,34.90
2023-04-29T18:28:55.891Z,38.57
2023-04-29T18:31:25.275Z,53.10
2023-04-29T18:33:52.648Z,54.77
2023-04-29T18:36:21.448Z,55.33
2023-04-29T18:38:48.877Z,65.47
2023-04-29T18:41:16.462Z,61.00
2023-04-29T18:43:43.762Z,55.70
2023-04-29T18:46:11.316Z,49.23
2023-04-29T18:48:40.654Z,46.83
2023-04-29T18:51:08.739Z,47.80
2023-04-29T18:53:35.948Z,48.83
2023-04-29T18:56:03.569Z,48.17
2023-04-29T18:58:30.797Z,48.00
2023-04-29T19:01:00.290Z,45.43
2023-04-29T19:03:27.732Z,44.37
2023-04-29T19:05:55.173Z,48.50
2023-04-29T19:08:22.515Z,48.60
2023-04-29T19:10:50.916Z,57.10
2023-04-29T19:13:18.593Z,65.77
2023-04-29T19:15:50.741Z,53.90
2023-04-29T19:18:20.348Z,54.97
2023-04-29T19:20:49.038Z,56.43
2023-04-29T19:23:17.075Z,62.70
2023-04-29T19:25:44.742Z,57.03
2023-04-29T19:28:12.090Z,64.43
2023-04-29T19:30:39.648Z,64.63
2023-04-29T19:33:07.071Z,60.67
2023-04-29T19:35:34.761Z,57.30
2023-04-29T19:38:02.620Z,58.93
2023-04-29T19:40:30.160Z,58.30
2023-04-29T19:42:57.678Z,55.10
2023-04-29T19:45:26.525Z,51.60
2023-04-29T19:47:55.094Z,52.40
2023-04-29T19:50:23.042Z,50.50
2023-04-29T19:52:50.683Z,62.13
2023-04-29T19:55:18.759Z,57.37
2023-04-29T19:57:46.248Z,58.30
2023-04-29T20:00:14.943Z,53.23
2023-04-29T20:02:42.701Z,48.73
2023-04-29T20:05:11.746Z,48.90
2023-04-29T20:07:39.584Z,52.27
2023-04-29T20:10:08.100Z,53.83
2023-04-29T20:12:36.071Z,47.27
2023-04-29T20:15:06.070Z,43.70
2023-04-29T20:17:33.732Z,38.53
2023-04-29T20:20:02.042Z,38.17
2023-04-29T20:22:29.785Z,42.37
2023-04-29T20:24:58.114Z,44.80
2023-04-29T20:27:25.669Z,42.00
2023-04-29T20:29:53.724Z,41.63
2023-04-29T20:32:22.014Z,42.33
2023-04-29T20:34:50.429Z,35.67
2023-04-29T20:37:20.035Z,41.20
2023-04-29T20:39:49.183Z,41.80
2023-04-29T20:42:17.176Z,41.53
2023-04-29T20:44:45.280Z,40.60
2023-04-29T20:47:12.746Z,41.53
2023-04-29T20:49:40.530Z,42.63
2023-04-29T20:52:08.071Z,44.00
2023-04-29T20:54:35.968Z,40.93
2023-04-29T20:57:06.334Z,44.03
2023-04-29T20:59:34.297Z,41.43
2023-04-29T21:02:02.237Z,38.37
2023-04-29T21:04:30.330Z,36.47
2023-04-29T21:06:58.029Z,33.03
2023-04-29T21:09:26.156Z,32.83
2023-04-29T21:11:53.704Z,31.87
2023-04-29T21:14:21.890Z,27.00
2023-04-29T21:16:49.480Z,27.97
2023-04-29T21:19:17.349Z,27.83
2023-04-29T21:21:45.014Z,27.53
2023-04-29T21:24:12.987Z,29.97
2023-04-29T21:26:40.267Z,26.80
2023-04-29T21:29:08.435Z,29.63
2023-04-29T21:31:35.937Z,26.83
2023-04-29T21:34:04.024Z,25.93
2023-04-29T21:36:32.247Z,21.97
2023-04-29T21:39:00.138Z,21.47
2023-04-29T21:41:31.979Z,22.53
2023-04-29T21:44:02.763Z,19.73
2023-04-29T21:46:33.612Z,25.47
2023-04-29T21:49:02.496Z,25.73
2023-04-29T21:51:30.248Z,25.07
2023-04-29T21:54:00.356Z,26.70
2023-04-29T21:56:27.803Z,27.03
2023-04-29T21:58:55.674Z,28.87
2023-04-29T22:01:27.449Z,25.93
2023-04-29T22:03:58.456Z,27.33
2023-04-29T22:06:26.062Z,26.03
2023-04-29T22:08:54.232Z,26.83
2023-04-29T22:11:22.307Z,24.23
2023-04-29T22:13:49.968Z,23.73
2023-04-29T22:16:19.061Z,26.73
2023-04-29T22:18:46.865Z,24.73
2023-04-29T22:21:14.296Z,21.83
2023-04-29T22:23:42.651Z,19.27
2023-04-29T22:26:09.891Z,19.00
2023-04-29T22:28:37.437Z,20.73
2023-04-29T22:31:04.938Z,20.67
2023-04-29T22:33:32.795Z,20.70
2023-04-29T22:36:00.144Z,19.73
2023-04-29T22:38:27.703Z,24.20
2023-04-29T22:40:55.020Z,23.00
2023-04-29T22:43:22.647Z,22.97
2023-04-29T22:45:57.058Z,24.83
2023-04-29T22:48:27.422Z,23.97
2023-04-29T22:50:56.854Z,24.90
2023-04-29T22:53:24.369Z,21.77
2023-04-29T22:55:52.481Z,24.03
2023-04-29T22:58:20.877Z,18.87
2023-04-29T23:00:54.367Z,20.73
2023-04-29T23:03:22.206Z,20.10
2023-04-29T23:05:50.241Z,22.13
2023-04-29T23:08:17.951Z,21.33
2023-04-29T23:10:51.968Z,20.97
2023-04-29T23:13:19.573Z,20.73
2023-04-29T23:15:46.876Z,20.93
2023-04-29T23:18:14.479Z,19.60
2023-04-29T23:20:41.719Z,19.90
2023-04-29T23:23:09.206Z,18.13
2023-04-29T23:25:36.394Z,19.57
2023-04-29T23:28:03.884Z,19.17
2023-04-29T23:30:32.761Z,19.77
2023-04-29T23:33:00.418Z,19.30
2023-04-29T23:35:27.743Z,18.13
2023-04-29T23:37:55.413Z,18.60
2023-04-29T23:40:22.840Z,22.13
2023-04-29T23:42:50.332Z,20.73
2023-04-29T23:45:17.616Z,20.80
2023-04-29T23:47:45.077Z,20.67
2023-04-29T23:50:12.358Z,18.80
2023-04-29T23:52:39.974Z,17.80
2023-04-29T23:55:07.790Z,16.67
2023-04-29T23:57:35.227Z,18.00
